Time;durP1;ratioP1;P1;durP2;ratioP2;P2;SDS_P1;SDS_P2;PMS_P1;PMS_P2;Temp;Humidity;BMP_temperature;BMP_pressure;BME280_temperature;BME280_humidity;BME280_pressure;Samples;Min_cycle;Max_cycle;Signal;HPM_P1;HPM_P2
2022/04/19 00:00:53;;;;;;;2.60;1.83;;;;;;;22.09;42.46;99975.56;20460176;28;97979;-81
2022/04/19 00:10:54;;;;;;;2.75;1.73;;;;;;;22.07;42.43;99968.63;20448400;28;97416;-82
2022/04/19 00:20:55;;;;;;;1.92;1.63;;;;;;;22.09;42.25;99952.66;20463285;28;97933;-82
2022/04/19 00:30:55;;;;;;;2.28;1.70;;;;;;;22.07;42.70;99944.91;20466898;28;98094;-81
2022/04/19 00:40:57;;;;;;;2.50;1.80;;;;;;;22.08;42.41;99929.91;20462483;28;97426;-82
2022/04/19 00:50:58;;;;;;;2.35;1.67;;;;;;;22.06;42.36;99923.94;20473904;28;100779;-82
2022/04/19 01:00:59;;;;;;;2.33;1.60;;;;;;;21.99;42.89;99921.00;20483998;28;98280;-83
2022/04/19 01:21:22;;;;;;;1.83;1.40;;;;;;;22.01;42.50;99905.06;20384916;28;98073;-82
2022/04/19 01:31:22;;;;;;;3.83;1.45;;;;;;;21.98;42.65;99900.88;20388216;28;99148;-82
2022/04/19 01:41:23;;;;;;;3.05;1.73;;;;;;;21.98;42.42;99885.06;20388807;28;97945;-82
2022/04/19 01:51:24;;;;;;;2.28;1.70;;;;;;;21.97;42.71;99887.84;20409295;28;98006;-81
2022/04/19 02:01:25;;;;;;;1.90;1.45;;;;;;;21.95;42.67;99885.34;20398488;28;97084;-81
2022/04/19 02:11:25;;;;;;;1.70;1.40;;;;;;;21.88;42.71;99878.94;20406260;28;97718;-81
2022/04/19 02:21:26;;;;;;;1.90;1.50;;;;;;;21.90;42.55;99874.38;20425494;28;97147;-82
2022/04/19 02:31:29;;;;;;;1.98;1.30;;;;;;;21.87;42.90;99867.59;20401757;28;98465;-82
2022/04/19 02:41:31;;;;;;;1.77;1.65;;;;;;;21.86;42.72;99868.56;20419296;28;97149;-82
2022/04/19 02:51:34;;;;;;;1.90;1.55;;;;;;;21.83;43.00;99862.72;20392522;28;100169;-83
2022/04/19 03:01:36;;;;;;;1.83;1.42;;;;;;;21.86;42.84;99865.91;20399889;28;97770;-83
2022/04/19 03:11:36;;;;;;;1.90;1.20;;;;;;;21.85;42.44;99872.16;20478529;28;97734;-83
2022/04/19 03:21:37;;;;;;;1.40;1.30;;;;;;;21.81;42.93;99867.28;20475567;28;97545;-82
2022/04/19 03:31:38;;;;;;;3.25;1.40;;;;;;;21.79;42.79;99870.06;20472272;28;97356;-81
2022/04/19 03:41:40;;;;;;;1.95;1.40;;;;;;;21.78;43.07;99868.38;20474721;28;97425;-82
2022/04/19 03:51:41;;;;;;;2.05;1.40;;;;;;;21.78;42.84;99854.41;20481752;28;99740;-83
2022/04/19 04:01:41;;;;;;;1.30;1.20;;;;;;;21.78;42.78;99857.03;20463026;28;97534;-83
2022/04/19 04:11:42;;;;;;;2.25;1.30;;;;;;;21.72;43.06;99858.41;20478859;28;96984;-82
2022/04/19 04:21:42;;;;;;;1.65;1.20;;;;;;;21.81;42.89;99870.75;20476886;28;100417;-77
2022/04/19 04:31:43;;;;;;;3.35;1.50;;;;;;;21.89;43.26;99862.16;20460652;28;101828;-76
2022/04/19 04:41:45;;;;;;;2.40;1.60;;;;;;;21.90;43.06;99856.75;20463580;28;99589;-77
2022/04/19 04:51:45;;;;;;;1.77;1.10;;;;;;;21.94;42.96;99862.59;20469927;28;98055;-77
2022/04/19 05:01:46;;;;;;;1.52;1.40;;;;;;;21.94;42.66;99870.50;20472122;28;97374;-77
2022/04/19 05:11:50;;;;;;;3.78;1.80;;;;;;;21.82;41.67;99872.41;20439441;28;97450;-76
2022/04/19 05:21:51;;;;;;;3.72;1.65;;;;;;;21.92;42.30;99867.16;20450104;28;102212;-76
2022/04/19 05:31:51;;;;;;;3.95;1.65;;;;;;;21.96;42.57;99863.28;20443877;28;98160;-76
2022/04/19 05:41:51;;;;;;;3.30;1.50;;;;;;;21.99;42.57;99859.56;20461994;28;97508;-76
2022/04/19 05:51:52;;;;;;;4.30;1.40;;;;;;;22.04;42.16;99867.88;20464302;28;98485;-76
2022/04/19 06:12:12;;;;;;;3.67;1.58;;;;;;;22.07;41.86;99883.44;20467293;28;97054;-79
2022/04/19 06:22:13;;;;;;;3.65;1.40;;;;;;;22.10;42.30;99875.22;20472816;28;97093;-79
2022/04/19 06:32:14;;;;;;;2.83;1.25;;;;;;;22.09;42.32;99864.84;20472860;28;97664;-77
2022/04/19 06:42:15;;;;;;;2.97;1.30;;;;;;;22.12;42.20;99867.19;20471397;28;96814;-79
2022/04/19 06:52:16;;;;;;;2.30;1.50;;;;;;;22.15;42.28;99872.19;20471912;28;98251;-79
2022/04/19 07:02:16;;;;;;;4.15;1.63;;;;;;;22.19;42.63;99863.88;20464153;28;98070;-81
2022/04/19 07:12:19;;;;;;;3.40;1.40;;;;;;;22.20;42.16;99862.06;20448718;28;97910;-82
2022/04/19 07:32:41;;;;;;;3.70;2.08;;;;;;;22.20;42.18;99854.13;20472455;28;97541;-82
2022/04/19 07:42:41;;;;;;;3.53;1.98;;;;;;;22.22;41.64;99846.94;20468745;28;101778;-83
2022/04/19 07:52:42;;;;;;;5.93;2.30;;;;;;;22.27;41.94;99843.88;20477385;28;97407;-82
2022/04/19 08:02:43;;;;;;;3.40;2.40;;;;;;;22.23;41.22;99844.16;20460025;28;100641;-81
2022/04/19 08:12:45;;;;;;;6.72;2.33;;;;;;;22.26;41.41;99847.50;20475130;28;97811;-82
2022/04/19 08:22:48;;;;;;;2.70;2.00;;;;;;;22.29;41.65;99850.69;20473587;28;96935;-82
2022/04/19 08:32:48;;;;;;;;;;;;;;;22.33;41.66;99845.97;20488341;28;99786;-79
2022/04/19 08:42:49;;;;;;;5.20;2.47;;;;;;;22.35;41.82;99841.38;20476226;28;97254;-80
2022/04/19 08:57:29;;;;;;;3.25;2.47;;;;;;;22.40;41.77;99833.91;20477043;28;99345;-80
2022/04/19 09:03:11;;;;;;;3.83;2.50;;;;;;;22.44;41.54;99832.66;20484627;28;97239;-81
2022/04/19 09:13:23;;;;;;;6.03;2.30;;;;;;;22.45;41.73;99823.78;20474531;28;97628;-82
2022/04/19 09:23:25;;;;;;;3.27;2.57;;;;;;;22.45;40.91;99813.22;20463197;28;97795;-81
2022/04/19 09:33:28;;;;;;;7.53;2.53;;;;;;;22.48;41.10;99807.63;20449128;28;97988;-82
2022/04/19 09:43:29;;;;;;;3.25;2.40;;;;;;;22.50;41.42;99803.06;20491749;28;97138;-81
2022/04/19 09:53:37;;;;;;;4.05;2.08;;;;;;;22.54;41.76;99812.38;20494828;28;97069;-81
2022/04/19 10:13:59;;;;;;;4.85;2.40;;;;;;;22.57;41.35;99800.72;20487254;28;98431;-85
2022/04/19 10:24:14;;;;;;;4.97;2.30;;;;;;;22.58;41.38;99799.69;20499494;28;97073;-83
2022/04/19 10:34:23;;;;;;;4.20;2.40;;;;;;;22.56;41.28;99801.69;20462088;28;98151;-86
2022/04/19 10:44:50;;;;;;;4.63;2.50;;;;;;;22.55;39.76;99790.28;20475423;28;100599;-82
2022/04/19 10:55:08;;;;;;;3.70;2.25;;;;;;;22.47;36.72;99782.25;20481350;28;97573;-84
2022/04/19 11:05:46;;;;;;;3.47;2.30;;;;;;;22.45;35.20;99775.44;20481626;28;97499;-84
2022/04/19 11:15:59;;;;;;;3.60;2.15;;;;;;;22.42;33.99;99770.47;20470920;28;102806;-85
2022/04/19 11:26:02;;;;;;;5.82;2.50;;;;;;;22.36;32.61;99783.22;20473341;28;96977;-84
2022/04/19 11:36:02;;;;;;;6.40;2.30;;;;;;;22.34;32.43;99793.06;20459717;28;98192;-84
2022/04/19 11:56:22;;;;;;;6.10;2.20;;;;;;;22.45;37.94;99792.13;20474672;28;97254;-83
2022/04/19 12:06:23;;;;;;;7.55;2.22;;;;;;;22.48;38.29;99802.38;20479947;28;96758;-83
2022/04/19 12:16:34;;;;;;;4.45;2.17;;;;;;;22.51;38.23;99799.47;20486472;28;96922;-83
2022/04/19 12:26:35;;;;;;;6.30;2.30;;;;;;;22.55;38.77;99800.81;20473879;28;100894;-83
2022/04/19 12:36:47;;;;;;;3.25;2.08;;;;;;;22.52;39.10;99806.41;20477410;28;97687;-84
2022/04/19 12:46:50;;;;;;;2.77;2.07;;;;;;;22.57;39.01;99820.97;20486872;28;101627;-82
2022/04/19 13:17:54;;;;;;;2.05;1.85;;;;;;;22.72;39.70;99801.06;20488380;28;96943;-80
2022/04/19 13:27:54;;;;;;;6.07;1.85;;;;;;;22.77;39.60;99798.00;20484508;28;97135;-81
2022/04/19 13:48:14;;;;;;;4.07;1.90;;;;;;;22.83;39.54;99814.09;20481039;28;96854;-80
2022/04/19 13:58:17;;;;;;;3.03;1.80;;;;;;;22.77;39.72;99816.50;20488066;28;97224;-81
2022/04/19 14:08:23;;;;;;;2.15;1.85;;;;;;;22.81;39.36;99828.41;20474891;28;101124;-83
2022/04/19 14:18:23;;;;;;;2.22;1.63;;;;;;;22.61;40.53;99820.53;20473410;28;97532;-80
2022/04/19 14:33:15;;;;;;;1.88;1.70;;;;;;;22.53;40.95;99834.47;20484035;28;96918;-81
2022/04/19 14:38:46;;;;;;;4.00;1.75;;;;;;;22.46;41.11;99841.28;20477965;28;97279;-80
2022/04/19 14:48:51;;;;;;;6.25;2.10;;;;;;;22.47;40.79;99842.94;20471277;28;101750;-79
2022/04/19 14:58:51;;;;;;;5.47;1.63;;;;;;;22.52;40.99;99866.25;20439609;28;101140;-78
2022/04/19 15:08:52;;;;;;;4.68;1.70;;;;;;;22.52;41.82;99869.72;20447497;28;97781;-78
2022/04/19 15:18:52;;;;;;;4.25;1.80;;;;;;;22.55;41.97;99877.34;20469212;28;97715;-83
2022/04/19 15:28:53;;;;;;;4.10;2.20;;;;;;;22.52;42.50;99866.25;20470363;28;96977;-82
2022/04/19 15:38:54;;;;;;;6.95;1.85;;;;;;;22.51;42.53;99867.22;20468752;28;97859;-83
2022/04/19 15:49:00;;;;;;;8.30;2.30;;;;;;;22.47;41.86;99864.03;20464189;28;96997;-82
2022/04/19 15:59:03;;;;;;;9.32;2.40;;;;;;;22.37;42.32;99871.94;20457554;28;98588;-79
2022/04/19 16:09:03;;;;;;;6.80;2.20;;;;;;;22.40;42.14;99876.13;20449018;28;100282;-77
2022/04/19 16:29:23;;;;;;;23.90;7.85;;;;;;;22.53;43.58;99878.47;20441998;28;98553;-78
2022/04/19 16:39:24;;;;;;;19.97;6.97;;;;;;;22.53;43.32;99875.81;20445741;28;97937;-78
2022/04/19 16:49:26;;;;;;;16.00;6.57;;;;;;;22.54;43.79;99880.97;20455526;28;97883;-77
2022/04/19 16:59:26;;;;;;;17.50;6.70;;;;;;;22.53;44.09;99883.75;20439493;28;97399;-80
2022/04/19 17:09:27;;;;;;;13.63;5.80;;;;;;;22.49;44.25;99874.44;20445955;28;99136;-77
2022/04/19 17:19:28;;;;;;;12.20;5.03;;;;;;;22.44;44.13;99866.94;20439537;28;98174;-77
2022/04/19 17:29:28;;;;;;;13.52;5.53;;;;;;;22.36;44.43;99862.34;20475244;28;98227;-82
2022/04/19 17:39:31;;;;;;;13.95;5.13;;;;;;;22.35;44.05;99884.41;20471553;28;97041;-81
2022/04/19 17:49:32;;;;;;;10.30;4.38;;;;;;;22.29;44.53;99900.78;20476432;28;97237;-82
2022/04/19 17:59:45;;;;;;;8.88;4.57;;;;;;;22.26;44.39;99918.69;20458063;28;96978;-78
2022/04/19 18:09:45;;;;;;;11.35;4.30;;;;;;;22.20;44.66;99944.66;20454874;28;97655;-78
2022/04/19 18:19:46;;;;;;;8.57;4.10;;;;;;;22.21;43.83;99948.13;20453239;28;97697;-79
2022/04/19 18:29:46;;;;;;;7.68;3.90;;;;;;;22.15;44.41;99961.84;20442526;28;97026;-76
2022/04/19 18:39:49;;;;;;;6.97;3.75;;;;;;;22.17;43.58;99957.28;20431524;28;98476;-81
2022/04/19 18:49:52;;;;;;;9.30;3.80;;;;;;;22.12;43.41;99975.28;20451561;28;98347;-80
2022/04/19 18:59:52;;;;;;;;;;;;;;;22.13;43.07;99993.63;20455044;28;98524;-79
2022/04/19 19:09:52;;;;;;;8.63;3.50;;;;;;;22.14;42.73;99994.44;20453474;28;97042;-79
2022/04/19 19:19:54;;;;;;;6.18;3.33;;;;;;;22.12;43.28;100015.69;20460609;28;97454;-79
2022/04/19 19:29:56;;;;;;;8.13;3.45;;;;;;;22.11;42.73;100014.00;20465463;28;98943;-80
2022/04/19 19:39:57;;;;;;;7.05;3.67;;;;;;;22.12;42.98;100022.75;20451040;28;97586;-79
2022/04/19 19:49:59;;;;;;;5.68;3.22;;;;;;;22.07;42.89;100036.34;20455136;28;102746;-79
2022/04/19 20:00:02;;;;;;;5.13;3.40;;;;;;;22.05;42.71;100056.75;20426389;28;97798;-80
2022/04/19 20:10:02;;;;;;;;;;;;;;;22.04;42.88;100055.88;20435890;28;97519;-78
2022/04/19 20:20:04;;;;;;;4.65;2.90;;;;;;;22.01;42.68;100053.53;20451618;28;98127;-78
2022/04/19 20:30:06;;;;;;;5.63;3.00;;;;;;;22.03;42.69;100043.69;20441615;28;99043;-77
2022/04/19 20:40:07;;;;;;;4.13;2.55;;;;;;;22.00;42.91;100046.59;20436886;28;97594;-76
2022/04/19 20:50:08;;;;;;;4.35;3.10;;;;;;;22.02;42.78;100038.53;20435193;28;100871;-78
2022/04/19 21:00:12;;;;;;;3.90;3.03;;;;;;;21.99;42.43;100037.00;20450001;28;97066;-79
2022/04/19 21:10:14;;;;;;;4.28;2.83;;;;;;;21.94;42.80;100031.31;20447036;28;97672;-81
2022/04/19 21:20:16;;;;;;;5.88;3.15;;;;;;;21.94;42.74;100039.22;20414533;28;97149;-80
2022/04/19 21:30:17;;;;;;;4.20;2.80;;;;;;;21.92;42.66;100041.13;20407725;28;97597;-79
2022/04/19 21:40:18;;;;;;;3.78;2.97;;;;;;;21.91;42.51;100050.03;20374410;28;97606;-77
2022/04/19 21:50:18;;;;;;;4.25;2.80;;;;;;;21.90;42.45;100061.53;20365074;28;97204;-80
2022/04/19 22:00:46;;;;;;;2.67;2.35;;;;;;;21.88;42.69;100060.81;20377016;28;98659;-80
2022/04/19 22:10:47;;;;;;;4.35;2.67;;;;;;;21.87;42.61;100053.88;20389795;28;97097;-80
2022/04/19 22:20:48;;;;;;;3.42;2.90;;;;;;;21.85;42.59;100064.56;20423766;28;97010;-80
2022/04/19 22:30:50;;;;;;;3.33;2.20;;;;;;;21.85;42.77;100075.09;20481868;28;97627;-81
2022/04/19 22:40:52;;;;;;;3.47;2.55;;;;;;;21.85;43.07;100066.34;20468215;28;97011;-80
2022/04/19 22:50:53;;;;;;;3.33;2.55;;;;;;;21.81;42.88;100064.94;20458081;28;97042;-82
2022/04/19 23:00:54;;;;;;;3.50;2.70;;;;;;;21.82;42.96;100066.63;20467971;28;99734;-81
2022/04/19 23:10:57;;;;;;;3.08;2.60;;;;;;;21.81;43.29;100063.13;20477839;28;98278;-81
2022/04/19 23:20:58;;;;;;;4.00;2.40;;;;;;;21.78;43.33;100081.03;20474426;28;98357;-82
2022/04/19 23:30:58;;;;;;;3.20;2.20;;;;;;;21.79;43.46;100061.59;20477161;28;97215;-80
2022/04/19 23:41:02;;;;;;;2.67;2.40;;;;;;;21.75;43.47;100056.59;20476655;28;98381;-80
2022/04/19 23:51:02;;;;;;;2.85;2.35;;;;;;;21.77;43.20;100059.09;20470008;28;100024;-80
